Time;durP1;ratioP1;P1;durP2;ratioP2;P2;SDS_P1;SDS_P2;PMS_P1;PMS_P2;Temp;Humidity;BMP_temperature;BMP_pressure;BME280_temperature;BME280_humidity;BME280_pressure;Samples;Min_cycle;Max_cycle;Signal;HPM_P1;HPM_P2
2023/10/16 00:00:47;;;;;;;3.25;0.50;;;9.60;99.90;;;;;;5073070;28;20060;-77
2023/10/16 00:03:33;;;;;;;7.80;1.80;;;9.60;99.90;;;;;;5072582;28;20047;-72
2023/10/16 00:06:19;;;;;;;9.70;1.10;;;9.70;99.90;;;;;;5073097;28;20097;-74
2023/10/16 00:09:14;;;;;;;8.50;1.17;;;9.70;99.90;;;;;;5072337;28;20048;-78
2023/10/16 00:12:02;;;;;;;7.95;0.98;;;9.70;99.90;;;;;;5071815;28;20095;-71
2023/10/16 00:14:48;;;;;;;6.55;0.93;;;9.70;99.90;;;;;;5072782;28;20056;-76
2023/10/16 00:17:34;;;;;;;5.88;0.73;;;9.70;99.90;;;;;;5059572;28;20044;-75
2023/10/16 00:20:24;;;;;;;5.38;0.60;;;9.70;99.90;;;;;;5072904;28;20081;-76
2023/10/16 00:23:11;;;;;;;4.32;0.57;;;9.70;99.90;;;;;;5077560;28;20764;-74
2023/10/16 00:26:00;;;;;;;4.40;0.68;;;9.70;99.90;;;;;;5072901;28;20059;-73
2023/10/16 00:28:46;;;;;;;4.07;0.98;;;9.70;99.90;;;;;;5072602;28;20056;-74
2023/10/16 00:31:32;;;;;;;3.53;0.70;;;9.70;99.90;;;;;;5072410;28;20055;-80
2023/10/16 00:34:22;;;;;;;6.47;0.60;;;9.70;99.90;;;;;;5091060;28;20548;-76
2023/10/16 00:37:10;;;;;;;4.72;0.93;;;9.70;99.90;;;;;;5059485;28;20759;-77
2023/10/16 00:39:56;;;;;;;8.73;0.93;;;9.70;99.90;;;;;;5057804;28;20052;-75
2023/10/16 00:42:43;;;;;;;7.28;0.80;;;9.70;99.90;;;;;;5072350;28;20071;-78
2023/10/16 00:45:29;;;;;;;7.38;0.75;;;9.70;99.90;;;;;;5072499;28;20052;-82
2023/10/16 00:48:19;;;;;;;6.90;1.05;;;9.80;99.90;;;;;;5072511;28;20584;-75
2023/10/16 00:51:08;;;;;;;7.30;0.60;;;9.70;99.90;;;;;;5072866;28;20044;-73
2023/10/16 00:53:54;;;;;;;3.83;0.63;;;9.70;99.90;;;;;;5058712;28;20475;-75
2023/10/16 00:56:40;;;;;;;1.73;0.38;;;9.70;99.90;;;;;;5072492;28;20056;-72
2023/10/16 00:59:31;;;;;;;3.65;0.43;;;9.70;99.90;;;;;;5083077;28;20093;-79
2023/10/16 01:02:26;;;;;;;5.10;0.88;;;9.50;99.90;;;;;;5059191;28;20044;-74
2023/10/16 01:05:12;;;;;;;5.07;0.70;;;9.40;99.90;;;;;;5057661;28;20456;-84
2023/10/16 01:07:58;;;;;;;5.35;0.95;;;9.30;99.90;;;;;;5059399;28;20055;-80
2023/10/16 01:10:56;;;;;;;5.07;0.90;;;9.30;99.90;;;;;;5073363;28;20084;-75
2023/10/16 01:13:42;;;;;;;2.25;0.63;;;9.20;99.90;;;;;;5090312;28;20135;-80
2023/10/16 01:16:29;;;;;;;5.38;0.55;;;9.20;99.90;;;;;;5072918;28;20114;-83
2023/10/16 01:19:19;;;;;;;5.57;0.77;;;9.10;99.90;;;;;;5072221;28;20060;-73
2023/10/16 01:22:11;;;;;;;7.90;0.60;;;9.00;99.90;;;;;;5073163;28;20056;-75
2023/10/16 01:24:59;;;;;;;3.10;0.70;;;9.00;99.90;;;;;;5073193;28;20507;-73
2023/10/16 01:27:45;;;;;;;5.22;0.82;;;9.00;99.90;;;;;;5071974;28;20056;-74
2023/10/16 01:30:34;;;;;;;7.22;0.70;;;9.20;99.90;;;;;;5072125;28;20074;-74
2023/10/16 01:33:23;;;;;;;8.63;1.05;;;9.40;99.90;;;;;;5059058;28;20836;-72
2023/10/16 01:36:10;;;;;;;7.15;1.20;;;9.50;99.90;;;;;;5071876;28;20056;-77
2023/10/16 01:38:59;;;;;;;8.65;0.90;;;9.50;99.90;;;;;;5071857;28;20063;-72
2023/10/16 01:41:52;;;;;;;9.23;2.13;;;9.60;99.90;;;;;;5071327;28;20135;-78
2023/10/16 01:44:39;;;;;;;3.78;0.70;;;9.60;99.90;;;;;;5089834;28;20048;-75
2023/10/16 01:47:26;;;;;;;7.18;0.65;;;9.70;99.90;;;;;;5072144;28;20060;-75
2023/10/16 01:50:21;;;;;;;4.70;0.90;;;9.70;99.90;;;;;;5072071;28;20048;-73
2023/10/16 01:53:13;;;;;;;3.42;0.52;;;9.80;99.90;;;;;;5062268;28;20440;-72
2023/10/16 01:56:04;;;;;;;5.57;0.88;;;9.80;99.90;;;;;;5076136;28;20870;-78
2023/10/16 01:58:52;;;;;;;9.07;0.73;;;9.90;99.90;;;;;;5078956;28;20213;-79
2023/10/16 02:01:38;;;;;;;10.50;1.27;;;9.90;99.90;;;;;;5061665;28;20063;-76
2023/10/16 02:04:24;;;;;;;7.70;1.20;;;9.80;99.90;;;;;;5053584;28;20044;-75
2023/10/16 02:07:11;;;;;;;5.85;0.90;;;9.80;99.90;;;;;;5061758;28;20138;-73
2023/10/16 02:09:58;;;;;;;5.55;0.80;;;9.80;99.90;;;;;;5074899;28;20058;-75
2023/10/16 02:12:44;;;;;;;2.15;0.68;;;9.80;99.90;;;;;;5075409;28;20063;-77
2023/10/16 02:15:30;;;;;;;6.32;1.30;;;9.70;99.90;;;;;;5074940;28;20048;-72
2023/10/16 02:18:20;;;;;;;2.55;0.63;;;9.70;99.90;;;;;;5060808;28;20051;-81
2023/10/16 02:21:13;;;;;;;5.55;0.80;;;9.70;99.90;;;;;;5075156;28;20059;-75
2023/10/16 02:24:03;;;;;;;7.88;0.90;;;9.70;99.90;;;;;;5075681;28;20107;-75
2023/10/16 02:27:02;;;;;;;9.50;1.65;;;9.80;99.90;;;;;;5075546;28;20091;-73
2023/10/16 02:29:51;;;;;;;15.45;1.48;;;9.80;99.90;;;;;;5075307;28;20056;-88
2023/10/16 02:32:38;;;;;;;5.40;1.00;;;9.80;99.90;;;;;;5093147;28;20044;-75
2023/10/16 02:35:24;;;;;;;7.15;0.82;;;9.80;99.90;;;;;;5093554;28;20098;-77
2023/10/16 02:38:13;;;;;;;12.88;1.58;;;9.90;99.90;;;;;;5075958;28;20044;-77
2023/10/16 02:41:03;;;;;;;9.20;1.08;;;9.90;99.90;;;;;;5075959;28;20480;-76
2023/10/16 02:43:49;;;;;;;8.30;1.08;;;10.00;99.90;;;;;;5075971;28;20048;-72
2023/10/16 02:46:36;;;;;;;6.72;1.00;;;9.90;99.90;;;;;;5078522;28;20049;-79
2023/10/16 02:49:22;;;;;;;11.73;1.10;;;10.00;99.90;;;;;;5074419;28;20480;-76
2023/10/16 02:52:08;;;;;;;6.53;0.90;;;10.00;99.90;;;;;;5092983;28;20105;-72
2023/10/16 02:54:57;;;;;;;4.57;1.02;;;10.10;99.90;;;;;;5074904;28;20089;-74
2023/10/16 02:57:43;;;;;;;5.43;0.70;;;10.10;99.90;;;;;;5074681;28;20056;-74
2023/10/16 03:00:34;;;;;;;5.65;0.98;;;10.00;99.90;;;;;;5072971;28;20139;-74
2023/10/16 03:03:21;;;;;;;5.07;1.00;;;10.00;99.90;;;;;;5060458;28;20040;-74
2023/10/16 03:06:09;;;;;;;5.60;1.00;;;10.00;99.90;;;;;;5073671;28;20056;-75
2023/10/16 03:09:13;;;;;;;9.15;1.05;;;10.00;99.90;;;;;;5074032;28;20048;-70
2023/10/16 03:12:08;;;;;;;8.23;1.10;;;10.00;99.90;;;;;;5074553;28;20048;-80
2023/10/16 03:14:58;;;;;;;19.02;1.63;;;9.90;99.90;;;;;;5072779;28;20125;-72
2023/10/16 03:17:50;;;;;;;14.00;1.90;;;9.90;99.90;;;;;;5072993;28;20048;-76
2023/10/16 03:20:37;;;;;;;6.30;0.82;;;9.90;99.90;;;;;;5060003;28;20533;-81
2023/10/16 03:23:23;;;;;;;5.82;1.13;;;9.80;99.90;;;;;;5073539;28;20571;-87
2023/10/16 03:26:33;;;;;;;3.50;1.33;;;9.90;99.90;;;;;;5073972;28;20056;-77
2023/10/16 03:29:19;;;;;;;5.07;0.95;;;9.90;99.90;;;;;;5073746;28;20060;-83
2023/10/16 03:32:05;;;;;;;4.20;1.42;;;10.10;99.90;;;;;;5072033;28;20051;-79
2023/10/16 03:34:51;;;;;;;3.40;0.85;;;10.10;99.90;;;;;;5092944;28;20408;-79
2023/10/16 03:37:37;;;;;;;8.07;0.90;;;10.10;99.90;;;;;;5047677;28;20048;-74
2023/10/16 03:40:27;;;;;;;8.27;0.80;;;10.20;99.90;;;;;;5059518;28;20071;-80
2023/10/16 03:43:13;;;;;;;8.20;1.00;;;10.10;99.90;;;;;;5074291;28;20052;-82
2023/10/16 03:46:02;;;;;;;6.68;0.95;;;10.20;99.90;;;;;;5073794;28;20499;-81
2023/10/16 03:48:49;;;;;;;4.65;0.90;;;10.10;99.90;;;;;;5073451;28;20060;-72
2023/10/16 03:51:35;;;;;;;5.75;0.80;;;10.10;99.90;;;;;;5072894;28;20055;-84
2023/10/16 03:54:30;;;;;;;8.88;0.95;;;10.10;99.90;;;;;;5058622;28;20044;-80
2023/10/16 03:57:20;;;;;;;3.47;0.68;;;10.10;99.90;;;;;;5060601;28;20056;-81
2023/10/16 04:00:14;;;;;;;7.45;0.82;;;10.00;99.90;;;;;;5075227;28;20500;-78
2023/10/16 04:03:00;;;;;;;4.85;1.20;;;10.00;99.90;;;;;;5072814;28;20373;-74
2023/10/16 04:05:46;;;;;;;5.43;0.80;;;10.00;99.90;;;;;;5059840;28;20052;-84
2023/10/16 04:08:32;;;;;;;4.47;0.82;;;9.90;99.90;;;;;;5073682;28;20134;-76
2023/10/16 04:11:20;;;;;;;4.50;0.82;;;10.00;99.90;;;;;;5091097;28;20048;-80
2023/10/16 04:14:08;;;;;;;5.28;0.57;;;10.00;99.90;;;;;;5090028;28;20051;-82
2023/10/16 04:16:55;;;;;;;7.07;1.05;;;10.00;99.90;;;;;;5060260;28;20055;-80
2023/10/16 04:19:52;;;;;;;5.20;0.60;;;10.00;99.90;;;;;;5091344;28;20048;-83
2023/10/16 04:22:44;;;;;;;3.10;0.75;;;10.00;99.90;;;;;;5058665;28;20133;-84
2023/10/16 04:25:56;;;;;;;5.68;1.05;;;9.90;99.90;;;;;;5073191;28;20396;-85
2023/10/16 04:34:53;;;;;;;8.43;1.30;;;9.90;99.90;;;;;;5043888;28;20078;-83
2023/10/16 04:37:42;;;;;;;6.55;0.70;;;9.90;99.90;;;;;;5072517;28;20154;-84
2023/10/16 04:42:49;;;;;;;4.72;1.00;;;9.90;99.90;;;;;;5072526;28;20047;-80
2023/10/16 04:47:00;;;;;;;5.18;0.70;;;9.90;99.90;;;;;;5090153;28;20127;-78
2023/10/16 04:49:59;;;;;;;3.67;1.08;;;9.80;99.90;;;;;;5090098;28;20138;-72
2023/10/16 04:58:38;;;;;;;7.50;1.08;;;9.80;99.90;;;;;;5071836;28;20044;-84
2023/10/16 05:01:33;;;;;;;7.15;0.93;;;9.70;99.90;;;;;;5058708;28;20064;-79
2023/10/16 05:11:23;;;;;;;5.20;0.70;;;9.90;99.90;;;;;;5071775;28;20075;-79
2023/10/16 06:14:37;;;;;;;10.45;1.50;;;10.20;99.90;;;;;;5074550;28;20052;-78
2023/10/16 06:17:23;;;;;;;8.55;1.98;;;10.20;99.90;;;;;;5061187;28;20051;-78
2023/10/16 06:20:19;;;;;;;9.65;1.23;;;10.20;99.90;;;;;;5093632;28;20582;-76
2023/10/16 06:23:10;;;;;;;13.63;2.05;;;10.20;99.90;;;;;;5093911;28;20040;-77
2023/10/16 06:26:01;;;;;;;11.95;1.67;;;10.20;99.90;;;;;;5075753;28;20105;-82
2023/10/16 06:28:47;;;;;;;10.25;1.30;;;10.20;99.90;;;;;;5063192;28;20059;-75
2023/10/16 06:31:49;;;;;;;7.75;1.52;;;10.30;99.90;;;;;;5094110;28;20044;-84
2023/10/16 06:34:39;;;;;;;6.35;1.05;;;10.30;99.90;;;;;;5076228;28;20101;-82
2023/10/16 06:37:25;;;;;;;7.43;1.50;;;10.30;99.90;;;;;;5093308;28;20122;-83
2023/10/16 06:40:17;;;;;;;10.05;1.10;;;10.30;99.90;;;;;;5075180;28;20130;-79
2023/10/16 06:43:09;;;;;;;7.60;1.35;;;10.40;99.90;;;;;;5090288;28;20577;-74
2023/10/16 06:45:55;;;;;;;7.35;1.20;;;10.30;99.90;;;;;;5073432;28;20072;-72
2023/10/16 06:48:41;;;;;;;12.77;1.33;;;10.30;99.90;;;;;;5085381;28;20103;-74
2023/10/16 06:51:27;;;;;;;7.97;1.40;;;10.30;99.90;;;;;;5071741;28;20495;-72
2023/10/16 06:54:13;;;;;;;9.02;1.05;;;10.30;99.90;;;;;;5087065;28;20151;-74
2023/10/16 06:57:05;;;;;;;2.88;0.93;;;10.30;99.90;;;;;;5083369;28;20044;-72
2023/10/16 06:59:51;;;;;;;11.15;1.35;;;10.30;99.90;;;;;;5082692;28;20054;-73
2023/10/16 07:02:37;;;;;;;4.15;1.00;;;10.40;99.90;;;;;;5073888;28;20139;-72
2023/10/16 07:05:24;;;;;;;9.02;1.30;;;10.40;99.90;;;;;;5074838;28;20109;-74
2023/10/16 07:08:20;;;;;;;8.48;1.90;;;10.50;99.90;;;;;;5074062;28;20479;-73
2023/10/16 07:11:11;;;;;;;3.83;1.00;;;10.50;99.90;;;;;;5074740;28;20108;-75
2023/10/16 07:13:57;;;;;;;5.60;0.90;;;10.60;99.90;;;;;;5073867;28;20488;-73
2023/10/16 07:16:43;;;;;;;5.15;1.17;;;10.60;99.90;;;;;;5078690;28;20044;-72
2023/10/16 07:19:29;;;;;;;7.28;1.33;;;10.60;99.90;;;;;;5074090;28;20511;-71
2023/10/16 07:22:16;;;;;;;11.07;1.85;;;10.60;99.90;;;;;;5074362;28;20462;-81
2023/10/16 07:28:09;;;;;;;4.18;0.95;;;10.70;99.90;;;;;;5074324;28;20393;-72
2023/10/16 07:30:59;;;;;;;6.13;1.10;;;10.70;99.90;;;;;;5074563;28;20113;-72
2023/10/16 07:33:50;;;;;;;5.82;1.02;;;10.70;99.90;;;;;;5073597;28;20579;-79
2023/10/16 07:36:36;;;;;;;10.82;1.05;;;10.70;99.90;;;;;;5073341;28;20052;-72
2023/10/16 07:39:22;;;;;;;6.22;1.25;;;10.70;99.90;;;;;;5073635;28;20070;-72
2023/10/16 07:42:10;;;;;;;10.90;2.22;;;10.70;99.90;;;;;;5092511;28;20052;-79
2023/10/16 07:44:56;;;;;;;14.05;2.35;;;10.80;99.90;;;;;;5076439;28;20056;-72
2023/10/16 07:47:47;;;;;;;8.85;1.90;;;10.80;99.90;;;;;;5076701;28;20050;-74
2023/10/16 07:50:36;;;;;;;7.57;1.45;;;10.80;99.90;;;;;;5060096;28;20579;-72
2023/10/16 07:53:22;;;;;;;10.57;2.13;;;10.80;99.90;;;;;;5076097;28;20051;-72
2023/10/16 07:59:10;;;;;;;10.40;1.48;;;10.90;99.90;;;;;;5091309;28;20040;-74
2023/10/16 08:01:57;;;;;;;8.10;1.55;;;11.00;99.90;;;;;;5072120;28;20048;-75
2023/10/16 08:04:44;;;;;;;8.77;1.58;;;11.10;99.90;;;;;;5091524;28;20113;-73
2023/10/16 08:07:48;;;;;;;6.07;1.10;;;11.20;99.90;;;;;;5059263;28;20786;-75
2023/10/16 08:10:43;;;;;;;4.78;1.13;;;11.30;99.90;;;;;;5073393;28;20051;-87
2023/10/16 08:13:33;;;;;;;3.88;1.20;;;11.50;99.90;;;;;;5072455;28;20059;-74
2023/10/16 08:16:21;;;;;;;5.07;0.85;;;11.60;99.90;;;;;;5091016;28;20576;-79
2023/10/16 08:19:14;;;;;;;4.03;1.02;;;11.60;99.90;;;;;;5089539;28;20060;-75
2023/10/16 08:22:03;;;;;;;8.18;1.20;;;11.60;99.90;;;;;;5090599;28;20492;-77
2023/10/16 08:24:58;;;;;;;11.32;1.52;;;11.70;99.90;;;;;;5072621;28;20056;-73
2023/10/16 08:27:48;;;;;;;5.57;1.27;;;11.70;99.90;;;;;;5090255;28;20146;-83
2023/10/16 08:30:44;;;;;;;10.73;1.77;;;11.80;99.90;;;;;;5060203;28;20048;-79
2023/10/16 08:33:30;;;;;;;9.63;1.33;;;11.80;99.90;;;;;;5092009;28;20054;-81
2023/10/16 08:36:18;;;;;;;12.82;1.55;;;11.90;99.90;;;;;;5059964;28;20575;-73
2023/10/16 08:39:15;;;;;;;6.18;1.73;;;11.80;99.90;;;;;;5072876;28;20058;-79
2023/10/16 08:42:20;;;;;;;6.72;1.35;;;11.80;99.90;;;;;;5072547;28;20151;-72
2023/10/16 08:45:23;;;;;;;12.10;1.30;;;11.80;99.90;;;;;;5072402;28;20545;-72
2023/10/16 08:48:10;;;;;;;6.82;1.20;;;11.80;99.90;;;;;;5075639;28;20048;-75
2023/10/16 08:50:57;;;;;;;10.40;1.50;;;11.80;99.90;;;;;;5072529;28;20059;-74
2023/10/16 08:53:44;;;;;;;5.38;1.02;;;11.80;99.90;;;;;;5073110;28;20491;-77
2023/10/16 08:56:34;;;;;;;6.00;1.35;;;11.80;99.90;;;;;;5090815;28;20380;-74
2023/10/16 08:59:25;;;;;;;4.85;0.70;;;11.80;99.90;;;;;;5072466;28;20484;-73
2023/10/16 09:02:11;;;;;;;3.40;0.70;;;11.80;99.90;;;;;;5075861;28;20051;-72
2023/10/16 09:04:57;;;;;;;6.40;1.00;;;11.90;99.90;;;;;;5048961;28;20052;-78
2023/10/16 09:07:44;;;;;;;6.13;0.88;;;12.00;99.90;;;;;;5076595;28;20093;-74
2023/10/16 09:10:30;;;;;;;6.93;0.77;;;12.30;99.90;;;;;;5076256;28;20059;-72
2023/10/16 09:13:19;;;;;;;7.88;0.93;;;12.50;99.90;;;;;;5079097;28;20052;-72
2023/10/16 09:16:11;;;;;;;7.20;1.00;;;12.70;99.90;;;;;;5062499;28;20469;-78
2023/10/16 09:18:58;;;;;;;3.80;0.80;;;12.80;99.90;;;;;;5094539;28;20052;-72
2023/10/16 09:21:45;;;;;;;4.95;1.20;;;12.90;99.90;;;;;;5075896;28;20056;-71
2023/10/16 09:24:35;;;;;;;5.70;1.02;;;12.90;99.90;;;;;;5063200;28;20105;-71
2023/10/16 09:27:22;;;;;;;6.32;1.10;;;12.90;99.90;;;;;;5076456;28;20055;-77
2023/10/16 09:30:14;;;;;;;10.88;1.02;;;12.80;99.90;;;;;;5076428;28;20086;-81
2023/10/16 09:33:00;;;;;;;7.05;1.63;;;12.50;99.90;;;;;;5063130;28;20059;-77
2023/10/16 09:35:46;;;;;;;5.88;1.13;;;12.50;99.90;;;;;;5062554;28;20148;-72
2023/10/16 09:38:33;;;;;;;6.38;1.48;;;12.50;99.90;;;;;;5075676;28;20063;-78
2023/10/16 09:44:23;;;;;;;5.97;1.20;;;12.50;99.90;;;;;;5075519;28;20080;-76
2023/10/16 09:47:25;;;;;;;5.30;1.70;;;12.50;99.90;;;;;;5074657;28;20059;-72
2023/10/16 09:50:18;;;;;;;4.95;1.70;;;12.40;99.90;;;;;;5075497;28;20661;-77
2023/10/16 09:53:08;;;;;;;6.32;1.23;;;12.40;99.90;;;;;;5062129;28;20150;-72
2023/10/16 09:55:58;;;;;;;6.88;1.10;;;12.40;99.90;;;;;;5075322;28;20047;-76
2023/10/16 09:58:51;;;;;;;6.25;1.60;;;12.40;99.90;;;;;;5076246;28;20055;-75
2023/10/16 10:01:42;;;;;;;6.90;1.20;;;12.50;99.90;;;;;;5075275;28;20116;-75
2023/10/16 10:04:32;;;;;;;4.50;1.10;;;12.70;99.90;;;;;;5076116;28;20133;-74
2023/10/16 10:07:34;;;;;;;7.88;1.10;;;13.00;99.90;;;;;;5074740;28;20381;-76
2023/10/16 10:13:23;;;;;;;6.40;1.00;;;13.50;99.90;;;;;;5093643;28;20079;-73
2023/10/16 10:16:20;;;;;;;7.70;1.00;;;13.50;99.90;;;;;;5075218;28;20048;-74
2023/10/16 10:19:23;;;;;;;5.20;1.50;;;13.60;99.90;;;;;;5061064;28;20060;-75
2023/10/16 10:22:26;;;;;;;6.38;1.13;;;13.60;99.90;;;;;;5093654;28;20588;-75
2023/10/16 10:25:25;;;;;;;6.07;1.52;;;13.70;99.90;;;;;;5075572;28;20044;-75
2023/10/16 10:28:25;;;;;;;5.47;0.77;;;13.80;99.90;;;;;;5075334;28;20052;-76
2023/10/16 10:31:14;;;;;;;11.57;1.75;;;14.00;99.90;;;;;;5074607;28;20136;-75
2023/10/16 10:34:23;;;;;;;5.68;0.82;;;14.10;99.90;;;;;;5078621;28;20040;-76
2023/10/16 10:37:51;;;;;;;5.40;0.98;;;14.30;99.90;;;;;;5061204;28;20059;-78
2023/10/16 10:40:37;;;;;;;6.97;1.25;;;14.50;99.90;;;;;;5061281;28;20056;-79
2023/10/16 10:43:46;;;;;;;22.15;1.80;;;14.50;99.90;;;;;;5092277;28;20052;-75
2023/10/16 10:46:35;;;;;;;5.40;1.00;;;14.60;99.90;;;;;;5093767;28;20155;-72
2023/10/16 10:49:35;;;;;;;7.78;1.25;;;14.60;99.90;;;;;;5093129;28;20044;-76
2023/10/16 10:52:21;;;;;;;6.63;0.85;;;14.70;99.90;;;;;;5092830;28;20052;-79
2023/10/16 10:55:26;;;;;;;8.00;1.10;;;14.80;99.90;;;;;;5075488;28;20048;-86
2023/10/16 10:58:12;;;;;;;;;;;14.90;99.90;;;;;;5093167;28;20108;-77
2023/10/16 11:01:16;;;;;;;5.68;0.95;;;14.80;99.90;;;;;;5073803;28;19939;-74
2023/10/16 11:04:09;;;;;;;6.57;1.05;;;15.10;99.90;;;;;;5092516;28;20047;-80
2023/10/16 11:06:58;;;;;;;10.35;1.20;;;15.30;99.90;;;;;;5074913;28;20052;-83
2023/10/16 11:09:44;;;;;;;7.05;1.42;;;15.20;99.90;;;;;;5063191;28;20063;-73
2023/10/16 11:12:30;;;;;;;7.32;1.33;;;15.90;99.90;;;;;;5076298;28;20056;-79
2023/10/16 11:15:16;;;;;;;7.63;1.10;;;16.40;99.90;;;;;;5064954;28;20113;-82
2023/10/16 11:18:21;;;;;;;3.95;0.90;;;17.20;99.40;;;;;;5080618;28;20082;-76
2023/10/16 11:21:07;;;;;;;3.00;0.55;;;17.60;97.60;;;;;;5077214;28;20136;-78
2023/10/16 11:24:00;;;;;;;5.93;0.80;;;17.70;97.80;;;;;;5073891;28;20052;-76
2023/10/16 11:26:50;;;;;;;5.03;0.88;;;17.90;97.20;;;;;;5093101;28;20056;-73
2023/10/16 11:29:40;;;;;;;3.63;0.90;;;17.80;97.20;;;;;;5061092;28;20060;-72
2023/10/16 11:32:26;;;;;;;6.28;0.90;;;17.70;97.40;;;;;;5092591;28;20055;-82
2023/10/16 11:35:14;;;;;;;3.28;0.90;;;18.00;97.10;;;;;;5092928;28;20176;-72
2023/10/16 11:38:12;;;;;;;15.48;1.38;;;18.00;96.40;;;;;;5092385;28;20044;-76
2023/10/16 11:41:17;;;;;;;8.55;1.58;;;18.10;96.60;;;;;;5092535;28;20075;-77
2023/10/16 11:44:16;;;;;;;6.22;1.30;;;17.80;96.10;;;;;;5092365;28;20576;-74
2023/10/16 11:47:03;;;;;;;7.22;1.20;;;17.20;96.60;;;;;;5092745;28;20436;-75
2023/10/16 11:49:53;;;;;;;6.63;1.10;;;16.90;97.30;;;;;;5091418;28;20559;-73
2023/10/16 11:52:40;;;;;;;4.10;1.27;;;16.80;98.00;;;;;;5073652;28;20052;-76
2023/10/16 11:55:29;;;;;;;8.40;2.15;;;16.80;97.80;;;;;;5074755;28;20686;-71
2023/10/16 11:58:14;;;;;;;6.47;0.80;;;16.90;97.90;;;;;;5074175;28;20060;-72
2023/10/16 12:01:09;;;;;;;6.57;1.25;;;17.30;98.00;;;;;;5072889;28;20047;-73
2023/10/16 12:03:55;;;;;;;10.07;1.73;;;17.50;97.50;;;;;;5072107;28;20061;-75
2023/10/16 12:06:44;;;;;;;6.57;1.40;;;17.50;96.80;;;;;;5071998;28;20426;-72
2023/10/16 12:09:42;;;;;;;5.93;1.10;;;17.80;96.50;;;;;;5073366;28;20054;-74
2023/10/16 12:12:28;;;;;;;5.72;1.10;;;17.70;96.20;;;;;;5090716;28;20048;-72
2023/10/16 12:15:15;;;;;;;4.78;0.80;;;17.40;96.10;;;;;;5073202;28;20527;-78
2023/10/16 12:18:01;;;;;;;12.18;1.38;;;17.10;96.40;;;;;;5072700;28;20131;-74
2023/10/16 12:20:47;;;;;;;6.70;1.25;;;16.90;97.00;;;;;;5073028;28;20504;-73
2023/10/16 12:23:39;;;;;;;8.07;1.05;;;16.80;97.20;;;;;;5092333;28;20117;-72
2023/10/16 12:26:25;;;;;;;5.03;0.95;;;16.80;96.90;;;;;;5074582;28;20040;-73
2023/10/16 12:29:11;;;;;;;8.40;1.65;;;16.60;96.60;;;;;;5076300;28;20462;-73
2023/10/16 12:32:02;;;;;;;12.18;1.00;;;16.50;96.10;;;;;;5059751;28;20580;-72
2023/10/16 12:34:49;;;;;;;5.78;1.52;;;16.50;96.10;;;;;;5072544;28;20052;-76
2023/10/16 12:37:35;;;;;;;6.20;1.10;;;16.50;95.70;;;;;;5076361;28;20044;-73
2023/10/16 12:40:27;;;;;;;8.30;1.48;;;16.40;95.50;;;;;;5072233;28;20052;-77
2023/10/16 12:43:13;;;;;;;5.38;0.90;;;16.40;95.00;;;;;;5060082;28;20139;-76
2023/10/16 12:45:59;;;;;;;6.95;1.25;;;16.40;94.80;;;;;;5073674;28;20056;-79
2023/10/16 12:48:46;;;;;;;7.18;1.85;;;16.50;94.40;;;;;;5073798;28;20062;-75
2023/10/16 12:51:34;;;;;;;3.95;0.95;;;16.40;94.20;;;;;;5072194;28;20044;-73
2023/10/16 12:54:24;;;;;;;8.20;0.90;;;16.30;93.70;;;;;;5072663;28;20109;-74
2023/10/16 12:57:10;;;;;;;6.25;0.95;;;16.40;93.90;;;;;;5072052;28;20059;-75
2023/10/16 12:59:56;;;;;;;6.40;0.80;;;16.30;93.70;;;;;;5073068;28;20127;-79
2023/10/16 13:02:45;;;;;;;4.68;1.10;;;16.30;93.70;;;;;;5072428;28;20056;-76
2023/10/16 13:05:33;;;;;;;4.07;1.00;;;16.40;93.40;;;;;;5072205;28;20044;-82
2023/10/16 13:08:23;;;;;;;6.88;1.10;;;16.30;93.20;;;;;;5044975;28;20536;-75
2023/10/16 13:11:10;;;;;;;4.47;1.00;;;16.50;93.60;;;;;;5058859;28;20139;-76
2023/10/16 13:13:56;;;;;;;5.93;1.10;;;16.50;93.40;;;;;;5072461;28;20492;-83
2023/10/16 13:16:50;;;;;;;4.53;1.23;;;16.50;93.10;;;;;;5073226;28;20079;-72
2023/10/16 13:19:39;;;;;;;4.63;0.80;;;16.50;93.40;;;;;;5052973;28;20090;-74
2023/10/16 13:22:25;;;;;;;5.63;1.25;;;16.50;93.70;;;;;;5052759;28;20059;-79
2023/10/16 13:25:13;;;;;;;7.05;1.08;;;16.40;93.70;;;;;;5052804;28;20047;-84
2023/10/16 13:28:03;;;;;;;5.13;0.82;;;16.30;93.50;;;;;;5071606;28;20061;-78
2023/10/16 13:30:51;;;;;;;8.32;1.10;;;16.20;93.60;;;;;;5052587;28;20060;-78
2023/10/16 13:33:41;;;;;;;3.40;0.85;;;16.20;93.90;;;;;;5054757;28;20053;-75
2023/10/16 13:36:28;;;;;;;7.25;0.80;;;16.10;94.30;;;;;;5053983;28;20094;-74
2023/10/16 13:39:19;;;;;;;4.45;1.10;;;16.10;94.90;;;;;;5041805;28;20565;-80
2023/10/16 13:42:08;;;;;;;10.23;1.27;;;16.30;95.30;;;;;;5053953;28;20103;-82
2023/10/16 13:44:59;;;;;;;2.63;0.80;;;16.30;94.90;;;;;;5053150;28;20670;-78
2023/10/16 13:47:46;;;;;;;6.57;1.45;;;16.30;94.90;;;;;;5054890;28;20117;-75
2023/10/16 13:50:32;;;;;;;4.43;1.00;;;16.20;94.90;;;;;;5056398;28;20136;-74
2023/10/16 13:53:19;;;;;;;3.35;0.80;;;16.10;94.70;;;;;;5058113;28;20883;-73
2023/10/16 13:56:07;;;;;;;7.22;1.13;;;16.00;95.10;;;;;;5058058;28;20048;-73
2023/10/16 13:58:53;;;;;;;7.05;2.10;;;15.90;95.40;;;;;;5057492;28;20061;-77
2023/10/16 14:01:39;;;;;;;4.15;1.10;;;15.90;95.90;;;;;;5056369;28;20092;-75
2023/10/16 14:04:28;;;;;;;7.35;0.73;;;15.90;95.90;;;;;;5074518;28;20098;-78
2023/10/16 14:07:19;;;;;;;4.30;0.90;;;15.90;95.80;;;;;;5074282;28;20052;-86
2023/10/16 14:10:05;;;;;;;5.80;0.90;;;15.90;95.30;;;;;;5057435;28;20139;-80
2023/10/16 14:13:10;;;;;;;5.80;1.10;;;15.70;94.90;;;;;;5062754;28;20057;-74
2023/10/16 14:16:11;;;;;;;5.32;1.55;;;15.70;95.30;;;;;;5062877;28;20404;-81
2023/10/16 14:18:58;;;;;;;7.22;1.13;;;15.70;95.60;;;;;;5088875;28;20113;-80
2023/10/16 14:21:44;;;;;;;5.43;1.00;;;15.70;95.30;;;;;;5095004;28;20423;-79
2023/10/16 14:24:30;;;;;;;6.13;1.08;;;15.60;95.00;;;;;;5076650;28;20044;-72
2023/10/16 14:27:24;;;;;;;6.55;1.65;;;15.50;95.30;;;;;;5076756;28;20422;-73
2023/10/16 14:30:11;;;;;;;6.15;1.25;;;15.40;96.00;;;;;;5075294;28;20411;-78
2023/10/16 14:32:57;;;;;;;7.32;1.15;;;15.20;96.20;;;;;;5092376;28;20044;-78
2023/10/16 14:35:43;;;;;;;5.90;1.40;;;15.10;96.30;;;;;;5093982;28;20067;-74
2023/10/16 14:38:29;;;;;;;3.08;0.70;;;15.00;96.90;;;;;;5061164;28;20596;-81
2023/10/16 14:41:17;;;;;;;5.85;0.93;;;15.00;97.50;;;;;;5075073;28;20098;-71
2023/10/16 14:44:04;;;;;;;4.25;0.88;;;15.10;98.00;;;;;;5074373;28;20609;-78
2023/10/16 14:46:50;;;;;;;7.25;2.05;;;15.00;98.20;;;;;;5091407;28;20112;-75
2023/10/16 14:49:36;;;;;;;10.65;1.63;;;15.20;98.70;;;;;;5078478;28;20059;-74
2023/10/16 14:52:22;;;;;;;10.23;1.63;;;15.20;98.50;;;;;;5094613;28;20062;-78
2023/10/16 14:55:08;;;;;;;5.07;1.35;;;15.20;98.40;;;;;;5081615;28;20094;-74
2023/10/16 14:57:55;;;;;;;10.40;1.55;;;15.20;98.50;;;;;;5093656;28;20492;-77
2023/10/16 15:00:50;;;;;;;6.15;1.13;;;15.20;98.80;;;;;;5095219;28;20044;-73
2023/10/16 15:03:39;;;;;;;;;;;15.20;98.70;;;;;;5094504;28;20142;-70
2023/10/16 15:06:25;;;;;;;7.85;1.27;;;15.10;98.40;;;;;;5094959;28;19973;-79
2023/10/16 15:09:16;;;;;;;6.22;1.38;;;15.00;98.80;;;;;;5112111;28;20395;-75
2023/10/16 15:12:03;;;;;;;7.68;1.50;;;14.90;99.00;;;;;;5093841;28;20535;-72
2023/10/16 15:14:51;;;;;;;7.07;1.10;;;14.80;99.10;;;;;;5111802;28;20526;-73
2023/10/16 15:17:40;;;;;;;5.25;1.13;;;14.70;99.30;;;;;;5090725;28;20060;-72
2023/10/16 15:20:26;;;;;;;7.82;1.15;;;14.50;99.40;;;;;;5091912;28;20770;-76
2023/10/16 15:23:13;;;;;;;6.60;1.10;;;14.40;99.60;;;;;;5092777;28;20056;-72
2023/10/16 15:26:01;;;;;;;9.00;1.90;;;14.30;99.80;;;;;;5091966;28;20052;-73
2023/10/16 15:28:46;;;;;;;4.07;0.80;;;14.10;99.70;;;;;;5074084;28;20060;-73
2023/10/16 15:31:32;;;;;;;7.82;1.33;;;14.00;99.90;;;;;;5060825;28;20136;-75
2023/10/16 15:34:19;;;;;;;6.03;1.55;;;13.90;99.90;;;;;;5073704;28;20047;-75
2023/10/16 15:37:05;;;;;;;8.70;1.33;;;13.80;99.90;;;;;;5091732;28;20416;-74
2023/10/16 15:39:51;;;;;;;7.18;1.77;;;13.70;99.90;;;;;;5073588;28;20080;-72
2023/10/16 15:42:37;;;;;;;10.93;1.85;;;13.60;99.90;;;;;;5084044;28;20142;-73
2023/10/16 15:45:25;;;;;;;8.95;1.38;;;13.60;99.90;;;;;;5073154;28;20052;-73
2023/10/16 15:48:12;;;;;;;6.50;1.10;;;13.50;99.90;;;;;;5073152;28;20102;-75
2023/10/16 15:50:58;;;;;;;13.30;2.00;;;13.40;99.90;;;;;;5073508;28;20557;-71
2023/10/16 15:53:46;;;;;;;10.68;0.98;;;13.30;99.90;;;;;;5072527;28;20056;-72
2023/10/16 15:56:32;;;;;;;6.18;1.40;;;13.20;99.90;;;;;;5060141;28;20052;-75
2023/10/16 15:59:21;;;;;;;6.82;1.30;;;13.20;99.90;;;;;;5073558;28;20550;-72
2023/10/16 16:02:07;;;;;;;6.43;0.88;;;13.10;99.90;;;;;;5091574;28;20052;-75
2023/10/16 16:04:54;;;;;;;4.35;0.80;;;12.90;99.90;;;;;;5072661;28;20056;-73
2023/10/16 16:07:43;;;;;;;5.85;1.17;;;12.90;99.90;;;;;;5076204;28;20048;-74
2023/10/16 16:10:31;;;;;;;9.32;1.50;;;12.80;99.90;;;;;;5059021;28;20075;-83
2023/10/16 16:13:18;;;;;;;5.50;1.08;;;12.70;99.90;;;;;;5072428;28;20036;-76
2023/10/16 16:16:05;;;;;;;3.88;0.80;;;12.60;99.90;;;;;;5073010;28;20094;-73
2023/10/16 16:18:52;;;;;;;8.70;1.50;;;12.50;99.90;;;;;;5058611;28;20408;-72